createdAt,value
2023-03-01T00:00:17.404Z,36.60
2023-03-01T00:04:17.476Z,36.61
2023-03-01T00:08:17.543Z,36.59
2023-03-01T00:12:17.594Z,36.57
2023-03-01T00:16:17.782Z,36.57
2023-03-01T00:20:17.739Z,36.56
2023-03-01T00:24:17.851Z,36.54
2023-03-01T00:28:17.946Z,36.55
2023-03-01T00:32:18.119Z,36.55
2023-03-01T00:36:18.175Z,36.53
2023-03-01T00:40:18.165Z,36.49
2023-03-01T00:44:18.236Z,36.53
2023-03-01T00:48:18.321Z,36.50
2023-03-01T00:52:18.436Z,36.51
2023-03-01T00:56:18.502Z,36.48
2023-03-01T01:00:18.596Z,36.47
2023-03-01T01:04:18.640Z,36.50
2023-03-01T01:08:18.759Z,36.48
2023-03-01T01:12:18.849Z,36.48
2023-03-01T01:16:18.930Z,36.47
2023-03-01T01:20:19.020Z,36.45
2023-03-01T01:24:19.106Z,36.42
2023-03-01T01:28:19.188Z,36.44
2023-03-01T01:32:19.359Z,36.41
2023-03-01T01:36:19.385Z,36.40
2023-03-01T01:40:19.444Z,36.41
2023-03-01T01:44:19.539Z,36.41
2023-03-01T01:48:20.214Z,36.43
2023-03-01T01:52:19.731Z,36.41
2023-03-01T01:56:19.898Z,36.40
2023-03-01T02:00:19.901Z,36.38
2023-03-01T02:04:19.999Z,36.35
2023-03-01T02:08:20.113Z,36.35
2023-03-01T02:12:20.179Z,36.34
2023-03-01T02:16:20.262Z,36.34
2023-03-01T02:20:20.379Z,36.32
2023-03-01T02:24:20.478Z,36.35
2023-03-01T02:28:20.574Z,36.34
2023-03-01T02:32:20.704Z,36.33
2023-03-01T02:36:20.804Z,36.35
2023-03-01T02:40:20.866Z,36.33
2023-03-01T02:44:20.967Z,36.32
2023-03-01T02:48:21.106Z,36.32
2023-03-01T02:52:21.238Z,36.30
2023-03-01T02:56:21.310Z,36.27
2023-03-01T03:00:21.410Z,36.25
2023-03-01T03:04:21.510Z,36.30
2023-03-01T03:08:21.683Z,36.29
2023-03-01T03:12:21.769Z,36.29
2023-03-01T03:16:21.954Z,36.25
2023-03-01T03:20:22.022Z,36.27
2023-03-01T03:24:22.124Z,36.25
2023-03-01T03:28:22.220Z,36.23
2023-03-01T03:32:22.389Z,36.21
2023-03-01T03:36:22.417Z,36.25
2023-03-01T03:40:22.548Z,36.25
2023-03-01T03:44:22.649Z,36.21
2023-03-01T03:48:22.750Z,36.18
2023-03-01T03:52:22.889Z,36.18
2023-03-01T03:56:22.966Z,36.16
2023-03-01T04:00:23.120Z,36.18
2023-03-01T04:04:23.249Z,36.19
2023-03-01T04:08:23.403Z,36.18
2023-03-01T04:12:23.512Z,36.13
2023-03-01T04:16:23.718Z,36.16
2023-03-01T04:20:23.785Z,36.15
2023-03-01T04:24:23.895Z,36.12
2023-03-01T04:28:24.065Z,36.15
2023-03-01T04:32:24.184Z,36.13
2023-03-01T04:36:24.435Z,36.17
2023-03-01T04:40:24.413Z,36.13
2023-03-01T04:44:24.590Z,36.11
2023-03-01T04:48:24.689Z,36.10
2023-03-01T04:52:24.834Z,36.11
2023-03-01T04:56:24.991Z,36.11
2023-03-01T05:00:25.118Z,36.13
2023-03-01T05:04:25.308Z,36.09
2023-03-01T05:08:25.388Z,36.08
2023-03-01T05:12:25.533Z,36.06
2023-03-01T05:16:25.646Z,36.06
2023-03-01T05:20:25.784Z,36.06
2023-03-01T05:24:25.940Z,36.05
2023-03-01T05:28:26.081Z,36.05
2023-03-01T05:32:26.243Z,36.04
2023-03-01T05:36:26.343Z,36.02
2023-03-01T05:40:26.463Z,36.02
2023-03-01T05:44:26.659Z,36.01
2023-03-01T05:48:26.726Z,35.94
2023-03-01T05:52:26.823Z,35.87
2023-03-01T05:56:26.860Z,35.76
2023-03-01T06:00:26.939Z,35.75
2023-03-01T06:04:26.990Z,35.68
2023-03-01T06:08:26.999Z,35.64
2023-03-01T06:12:26.976Z,35.58
2023-03-01T06:16:26.944Z,35.56
2023-03-01T06:20:26.942Z,35.55
2023-03-01T06:24:26.915Z,35.55
2023-03-01T06:28:26.941Z,35.54
2023-03-01T06:32:27.046Z,35.54
2023-03-01T06:36:27.309Z,35.53
2023-03-01T06:40:27.276Z,35.56
2023-03-01T06:44:27.849Z,35.54
2023-03-01T06:48:27.844Z,35.58
2023-03-01T06:52:27.835Z,35.60
2023-03-01T06:56:27.823Z,35.60
2023-03-01T07:00:27.855Z,35.60
2023-03-01T07:04:28.347Z,35.62
2023-03-01T07:08:27.914Z,35.63
2023-03-01T07:12:28.019Z,35.62
2023-03-01T07:16:28.145Z,35.61
2023-03-01T07:20:28.120Z,35.64
2023-03-01T07:24:28.196Z,35.63
2023-03-01T07:28:28.234Z,35.62
2023-03-01T07:32:28.334Z,35.65
2023-03-01T07:36:28.577Z,35.63
2023-03-01T07:40:29.354Z,35.62
2023-03-01T07:44:28.464Z,35.62
2023-03-01T07:48:28.843Z,35.64
2023-03-01T07:52:28.558Z,35.62
2023-03-01T07:56:28.874Z,35.64
2023-03-01T08:00:28.837Z,35.63
2023-03-01T08:04:28.758Z,35.60
2023-03-01T08:08:28.837Z,35.60
2023-03-01T08:12:29.360Z,35.62
2023-03-01T08:16:29.580Z,35.79
2023-03-01T08:20:29.370Z,32.75
2023-03-01T08:24:29.240Z,31.09
2023-03-01T08:28:29.310Z,30.51
2023-03-01T08:32:29.936Z,29.75
2023-03-01T08:36:29.754Z,30.52
2023-03-01T08:40:29.840Z,31.35
2023-03-01T08:44:29.739Z,31.51
2023-03-01T08:48:29.894Z,32.42
2023-03-01T08:52:30.370Z,32.75
2023-03-01T08:56:30.347Z,33.33
2023-03-01T09:00:30.361Z,33.79
2023-03-01T09:04:30.381Z,34.30
2023-03-01T09:08:30.603Z,34.81
2023-03-01T09:12:30.886Z,35.03
2023-03-01T09:16:31.030Z,35.43
2023-03-01T09:20:30.797Z,35.80
2023-03-01T09:24:30.832Z,36.03
2023-03-01T09:28:30.971Z,36.41
2023-03-01T09:32:31.041Z,36.54
2023-03-01T09:36:31.243Z,36.77
2023-03-01T09:40:30.914Z,31.40
2023-03-01T09:44:31.386Z,31.84
2023-03-01T09:48:31.396Z,29.95
2023-03-01T09:52:31.392Z,31.66
2023-03-01T09:56:31.666Z,32.59
2023-03-01T10:00:31.887Z,33.59
2023-03-01T10:04:31.672Z,34.03
2023-03-01T10:08:31.785Z,34.70
2023-03-01T10:12:31.910Z,35.11
2023-03-01T10:16:32.047Z,35.61
2023-03-01T10:20:32.416Z,35.99
2023-03-01T10:24:32.203Z,36.36
2023-03-01T10:28:32.239Z,36.69
2023-03-01T10:32:32.429Z,37.09
2023-03-01T10:36:32.719Z,37.38
2023-03-01T10:40:32.410Z,37.79
2023-03-01T10:44:32.930Z,36.04
2023-03-01T10:48:33.757Z,34.76
2023-03-01T10:52:32.940Z,34.14
2023-03-01T10:56:32.744Z,33.44
2023-03-01T11:00:32.905Z,32.97
2023-03-01T11:04:33.009Z,29.73
2023-03-01T11:08:34.908Z,29.70
2023-03-01T11:12:33.138Z,28.90
2023-03-01T11:16:33.338Z,28.67
2023-03-01T11:20:33.386Z,29.75
2023-03-01T11:24:33.572Z,30.47
2023-03-01T11:28:33.737Z,30.32
2023-03-01T11:32:33.969Z,30.28
2023-03-01T11:36:33.967Z,30.38
2023-03-01T11:40:34.430Z,30.56
2023-03-01T11:44:34.440Z,30.72
2023-03-01T11:48:48.492Z,30.85
2023-03-01T11:52:35.178Z,31.05
2023-03-01T11:56:34.156Z,31.20
2023-03-01T12:00:34.431Z,31.38
2023-03-01T12:04:34.141Z,31.58
2023-03-01T12:08:34.447Z,31.71
2023-03-01T12:12:33.991Z,31.83
2023-03-01T12:16:39.248Z,32.00
2023-03-01T12:20:35.463Z,32.10
2023-03-01T12:24:33.889Z,32.22
2023-03-01T12:28:33.933Z,32.32
2023-03-01T12:32:35.431Z,32.41
2023-03-01T12:36:34.139Z,32.50
2023-03-01T12:40:33.825Z,32.59
2023-03-01T12:44:33.722Z,32.65
2023-03-01T12:48:33.686Z,32.73
2023-03-01T12:52:33.960Z,32.79
2023-03-01T12:56:33.926Z,32.86
2023-03-01T13:00:33.648Z,32.95
2023-03-01T13:04:35.300Z,33.19
2023-03-01T13:08:33.965Z,33.22
2023-03-01T13:12:33.552Z,33.32
2023-03-01T13:16:33.833Z,33.40
2023-03-01T13:20:33.461Z,33.48
2023-03-01T13:24:33.433Z,33.54
2023-03-01T13:28:33.395Z,33.56
2023-03-01T13:32:44.705Z,33.60
2023-03-01T13:36:34.744Z,33.63
2023-03-01T13:40:33.297Z,33.67
2023-03-01T13:44:33.272Z,33.68
2023-03-01T13:48:33.258Z,33.67
2023-03-01T13:52:33.197Z,33.72
2023-03-01T13:56:33.524Z,33.75
2023-03-01T14:00:33.180Z,33.78
2023-03-01T14:04:33.081Z,33.80
2023-03-01T14:08:33.065Z,33.82
2023-03-01T14:12:33.021Z,33.82
2023-03-01T14:16:33.337Z,33.83
2023-03-01T14:20:32.953Z,33.85
2023-03-01T14:24:33.095Z,33.88
2023-03-01T14:28:33.319Z,33.87
2023-03-01T14:32:33.689Z,33.90
2023-03-01T14:36:33.804Z,33.92
2023-03-01T14:40:33.934Z,33.94
2023-03-01T14:44:34.081Z,33.96
2023-03-01T14:48:34.290Z,33.96
2023-03-01T14:52:34.500Z,34.03
2023-03-01T14:56:34.659Z,34.06
2023-03-01T15:00:34.862Z,34.10
2023-03-01T15:04:35.117Z,34.13
2023-03-01T15:08:35.250Z,34.17
2023-03-01T15:12:35.474Z,34.03
2023-03-01T15:16:35.614Z,33.73
2023-03-01T15:20:35.724Z,32.83
2023-03-01T15:24:35.842Z,32.79
2023-03-01T15:28:35.982Z,32.56
2023-03-01T15:32:36.039Z,33.06
2023-03-01T15:36:36.140Z,33.36
2023-03-01T15:40:36.280Z,33.32
2023-03-01T15:44:43.312Z,33.47
2023-03-01T15:48:37.675Z,33.82
2023-03-01T15:52:36.899Z,34.12
2023-03-01T15:56:36.835Z,34.37
2023-03-01T16:00:36.803Z,34.59
2023-03-01T16:04:36.792Z,34.75
2023-03-01T16:08:36.738Z,34.87
2023-03-01T16:12:36.695Z,34.98
2023-03-01T16:16:36.711Z,35.05
2023-03-01T16:20:36.677Z,35.12
2023-03-01T16:24:36.645Z,35.17
2023-03-01T16:28:36.587Z,35.22
2023-03-01T16:32:36.607Z,35.25
2023-03-01T16:36:36.480Z,35.28
2023-03-01T16:40:36.555Z,35.31
2023-03-01T16:44:36.698Z,35.34
2023-03-01T16:48:36.768Z,35.35
2023-03-01T16:52:36.786Z,35.39
2023-03-01T16:56:36.905Z,35.41
2023-03-01T17:00:36.969Z,35.44
2023-03-01T17:04:37.079Z,35.45
2023-03-01T17:08:37.224Z,35.45
2023-03-01T17:12:37.343Z,35.48
2023-03-01T17:16:37.461Z,35.50
2023-03-01T17:20:37.514Z,35.51
2023-03-01T17:24:37.564Z,35.50
2023-03-01T17:28:37.660Z,35.55
2023-03-01T17:32:37.841Z,35.55
2023-03-01T17:36:37.813Z,35.57
2023-03-01T17:40:37.727Z,35.58
2023-03-01T17:44:37.724Z,35.62
2023-03-01T17:48:37.732Z,35.61
2023-03-01T17:52:37.716Z,35.62
2023-03-01T17:56:37.710Z,35.62
2023-03-01T18:00:37.652Z,35.65
2023-03-01T18:04:37.632Z,35.65
2023-03-01T18:08:37.662Z,35.65
2023-03-01T18:12:37.645Z,35.66
2023-03-01T18:16:37.643Z,35.71
2023-03-01T18:20:37.656Z,35.68
2023-03-01T18:24:37.632Z,35.71
2023-03-01T18:28:37.622Z,35.71
2023-03-01T18:32:37.636Z,35.72
2023-03-01T18:36:38.380Z,35.71
2023-03-01T18:40:37.694Z,35.71
2023-03-01T18:44:37.735Z,35.75
2023-03-01T18:48:37.703Z,35.74
2023-03-01T18:52:37.738Z,35.77
2023-03-01T18:56:37.741Z,35.78
2023-03-01T19:00:37.746Z,35.77
2023-03-01T19:04:37.808Z,35.78
2023-03-01T19:08:37.790Z,35.79
2023-03-01T19:12:37.814Z,35.79
2023-03-01T19:16:37.902Z,35.81
2023-03-01T19:20:39.500Z,35.82
2023-03-01T19:24:38.006Z,35.80
2023-03-01T19:28:39.614Z,35.81
2023-03-01T19:32:38.001Z,35.83
2023-03-01T19:36:38.051Z,35.82
2023-03-01T19:40:38.048Z,35.84
2023-03-01T19:44:38.105Z,35.84
2023-03-01T19:48:38.133Z,35.86
2023-03-01T19:52:38.200Z,35.86
2023-03-01T19:56:38.239Z,35.86
2023-03-01T20:00:38.251Z,35.86
2023-03-01T20:04:38.301Z,35.86
2023-03-01T20:08:38.567Z,35.86
2023-03-01T20:12:38.364Z,35.87
2023-03-01T20:16:38.495Z,35.91
2023-03-01T20:20:38.543Z,35.90
2023-03-01T20:24:38.562Z,35.89
2023-03-01T20:28:38.619Z,35.92
2023-03-01T20:32:38.747Z,35.93
2023-03-01T20:36:38.957Z,35.91
2023-03-01T20:40:38.845Z,35.92
2023-03-01T20:44:38.832Z,35.93
2023-03-01T20:48:38.952Z,35.92
2023-03-01T20:52:47.084Z,35.92
2023-03-01T20:56:39.915Z,35.92
2023-03-01T21:00:38.917Z,35.94
2023-03-01T21:04:38.868Z,35.93
2023-03-01T21:08:38.809Z,35.95
2023-03-01T21:12:38.812Z,35.97
2023-03-01T21:16:38.915Z,35.95
2023-03-01T21:20:38.944Z,35.93
2023-03-01T21:24:39.021Z,35.96
2023-03-01T21:28:39.095Z,35.93
2023-03-01T21:32:39.287Z,35.96
2023-03-01T21:36:39.283Z,35.96
2023-03-01T21:40:39.374Z,35.95
2023-03-01T21:44:39.487Z,35.97
2023-03-01T21:48:40.077Z,35.95
2023-03-01T21:52:39.668Z,35.97
2023-03-01T21:56:39.763Z,35.96
2023-03-01T22:00:39.930Z,35.95
2023-03-01T22:04:39.961Z,35.94
2023-03-01T22:08:40.040Z,35.97
2023-03-01T22:12:40.631Z,35.95
2023-03-01T22:16:40.372Z,35.93
2023-03-01T22:20:40.318Z,35.95
2023-03-01T22:24:40.414Z,35.97
2023-03-01T22:28:40.568Z,35.97
2023-03-01T22:32:40.557Z,35.96
2023-03-01T22:36:40.705Z,35.99
2023-03-01T22:40:40.805Z,35.96
2023-03-01T22:44:40.909Z,35.98
2023-03-01T22:48:40.988Z,35.96
2023-03-01T22:52:41.118Z,35.96
2023-03-01T22:56:41.225Z,35.94
2023-03-01T23:00:41.331Z,35.95
2023-03-01T23:04:41.409Z,35.99
2023-03-01T23:08:41.528Z,35.96
2023-03-01T23:12:41.640Z,35.96
2023-03-01T23:16:41.759Z,35.98
2023-03-01T23:20:41.887Z,35.97
2023-03-01T23:24:42.044Z,36.00
2023-03-01T23:28:42.095Z,36.00
2023-03-01T23:32:42.165Z,35.99
2023-03-01T23:36:42.292Z,36.01
2023-03-01T23:40:42.413Z,36.00
2023-03-01T23:44:42.539Z,36.01
2023-03-01T23:48:42.630Z,36.03
2023-03-01T23:52:42.764Z,36.00
2023-03-01T23:56:42.943Z,36.01
